Time;durP1;ratioP1;P1;durP2;ratioP2;P2;SDS_P1;SDS_P2;PMS_P1;PMS_P2;Temp;Humidity;BMP_temperature;BMP_pressure;BME280_temperature;BME280_humidity;BME280_pressure;Samples;Min_cycle;Max_cycle;Signal;HPM_P1;HPM_P2
2022/03/29 00:00:20;;;;;;;13.10;7.30;;;;;;;;;;10369890;28;20033;-43
2022/03/29 00:05:21;;;;;;;10.95;6.97;;;;;;;;;;10369207;28;20504;-42
2022/03/29 00:10:21;;;;;;;7.85;6.45;;;;;;;;;;10369005;28;20030;-43
2022/03/29 00:15:24;;;;;;;10.50;7.15;;;;;;;;;;10368610;28;20121;-42
2022/03/29 00:20:25;;;;;;;9.95;6.90;;;;;;;;;;10368761;28;20041;-42
2022/03/29 00:25:25;;;;;;;11.30;7.03;;;;;;;;;;10367956;28;20022;-42
2022/03/29 00:30:26;;;;;;;11.93;7.25;;;;;;;;;;10368792;28;20038;-43
2022/03/29 00:35:27;;;;;;;13.48;7.13;;;;;;;;;;10368377;28;20030;-43
2022/03/29 00:40:27;;;;;;;12.98;8.02;;;;;;;;;;10367749;28;20038;-43
2022/03/29 00:45:29;;;;;;;10.90;7.32;;;;;;;;;;10367345;28;20034;-43
2022/03/29 00:50:30;;;;;;;8.20;6.70;;;;;;;;;;10350151;28;20052;-43
2022/03/29 00:55:31;;;;;;;10.27;7.10;;;;;;;;;;10349976;28;20029;-43
2022/03/29 01:00:33;;;;;;;10.60;6.88;;;;;;;;;;10367586;28;20034;-42
2022/03/29 01:05:33;;;;;;;9.77;6.70;;;;;;;;;;10367393;28;20524;-42
2022/03/29 01:10:34;;;;;;;11.55;6.70;;;;;;;;;;10366333;28;20080;-42
2022/03/29 01:15:37;;;;;;;8.50;6.57;;;;;;;;;;10367863;28;20034;-42
2022/03/29 01:20:39;;;;;;;9.43;6.78;;;;;;;;;;10367879;28;20040;-42
2022/03/29 01:25:40;;;;;;;14.75;7.15;;;;;;;;;;10350290;28;20457;-42
2022/03/29 01:30:41;;;;;;;11.43;6.88;;;;;;;;;;10350362;28;20076;-42
2022/03/29 01:35:43;;;;;;;12.45;7.40;;;;;;;;;;10349542;28;20018;-42
2022/03/29 01:40:44;;;;;;;9.77;6.85;;;;;;;;;;10374474;28;20382;-42
2022/03/29 01:45:44;;;;;;;9.15;6.90;;;;;;;;;;10375130;28;20030;-42
2022/03/29 01:50:45;;;;;;;10.70;7.28;;;;;;;;;;10375178;28;20045;-43
2022/03/29 01:55:47;;;;;;;9.77;6.90;;;;;;;;;;10374931;28;20037;-43
2022/03/29 02:00:48;;;;;;;10.50;6.78;;;;;;;;;;10374775;28;20488;-43
2022/03/29 02:05:49;;;;;;;10.20;6.90;;;;;;;;;;10374585;28;20026;-42
2022/03/29 02:10:50;;;;;;;9.55;6.90;;;;;;;;;;10373849;28;20029;-43
2022/03/29 02:15:51;;;;;;;8.48;6.68;;;;;;;;;;10374470;28;20026;-42
2022/03/29 02:20:52;;;;;;;13.80;6.57;;;;;;;;;;10374087;28;20045;-42
2022/03/29 02:25:53;;;;;;;12.27;7.30;;;;;;;;;;10373777;28;20511;-42
2022/03/29 02:30:53;;;;;;;9.82;7.03;;;;;;;;;;10372852;28;20155;-41
2022/03/29 02:35:54;;;;;;;11.02;6.70;;;;;;;;;;10373375;28;20022;-43
2022/03/29 02:40:57;;;;;;;8.70;6.88;;;;;;;;;;10373058;28;20046;-43
2022/03/29 02:45:58;;;;;;;11.80;6.55;;;;;;;;;;10372578;28;20026;-42
2022/03/29 02:50:59;;;;;;;13.98;7.60;;;;;;;;;;10373197;28;20038;-43
2022/03/29 02:55:59;;;;;;;11.50;6.88;;;;;;;;;;10372989;28;20057;-42
2022/03/29 03:01:00;;;;;;;9.63;7.32;;;;;;;;;;10373150;28;20030;-42
2022/03/29 03:06:01;;;;;;;11.05;7.57;;;;;;;;;;10372405;28;20048;-43
2022/03/29 03:11:01;;;;;;;9.80;7.50;;;;;;;;;;10372129;28;20030;-43
2022/03/29 03:16:02;;;;;;;11.68;7.30;;;;;;;;;;10371671;28;20366;-43
2022/03/29 03:21:03;;;;;;;8.50;6.88;;;;;;;;;;10370541;28;20026;-42
2022/03/29 03:26:03;;;;;;;8.07;6.43;;;;;;;;;;10370646;28;20022;-43
2022/03/29 03:31:04;;;;;;;9.00;6.60;;;;;;;;;;10370539;28;20026;-42
2022/03/29 03:36:05;;;;;;;7.68;6.25;;;;;;;;;;10370044;28;20037;-43
2022/03/29 03:41:06;;;;;;;7.97;6.82;;;;;;;;;;10369927;28;20042;-43
2022/03/29 03:46:06;;;;;;;12.18;7.35;;;;;;;;;;10370405;28;20477;-42
2022/03/29 03:51:07;;;;;;;10.90;7.43;;;;;;;;;;10369698;28;20462;-42
2022/03/29 03:56:07;;;;;;;10.85;6.90;;;;;;;;;;10351914;28;20535;-42
2022/03/29 04:01:11;;;;;;;10.05;7.10;;;;;;;;;;10368905;28;20110;-43
2022/03/29 04:06:12;;;;;;;12.60;7.85;;;;;;;;;;10369565;28;20105;-43
2022/03/29 04:11:13;;;;;;;10.40;7.95;;;;;;;;;;10368955;28;20026;-42
2022/03/29 04:16:14;;;;;;;9.95;8.48;;;;;;;;;;10368829;28;20030;-42
2022/03/29 04:21:14;;;;;;;10.68;8.55;;;;;;;;;;10368730;28;20166;-43
2022/03/29 04:26:15;;;;;;;10.95;7.68;;;;;;;;;;10368261;28;20087;-43
2022/03/29 04:31:16;;;;;;;10.15;7.68;;;;;;;;;;10368317;28;20092;-43
2022/03/29 04:36:16;;;;;;;9.60;7.93;;;;;;;;;;10368792;28;20033;-43
2022/03/29 04:41:17;;;;;;;11.02;7.57;;;;;;;;;;10368012;28;20088;-43
2022/03/29 04:46:17;;;;;;;9.63;7.57;;;;;;;;;;10367751;28;20036;-43
2022/03/29 04:51:21;;;;;;;9.88;7.35;;;;;;;;;;10367980;28;20202;-43
2022/03/29 04:56:22;;;;;;;11.10;8.15;;;;;;;;;;10367849;28;20026;-42
2022/03/29 05:01:22;;;;;;;9.85;7.78;;;;;;;;;;10366129;28;20485;-42
2022/03/29 05:06:23;;;;;;;9.77;7.82;;;;;;;;;;10366752;28;20508;-43
2022/03/29 05:11:23;;;;;;;10.45;7.47;;;;;;;;;;10374651;28;20477;-43
2022/03/29 05:16:24;;;;;;;8.70;7.28;;;;;;;;;;10380666;28;20389;-43
2022/03/29 05:21:25;;;;;;;9.60;6.82;;;;;;;;;;10380794;28;20440;-43
2022/03/29 05:26:26;;;;;;;9.00;6.80;;;;;;;;;;10380125;28;20041;-59
2022/03/29 05:31:26;;;;;;;9.95;7.13;;;;;;;;;;10379434;28;20037;-44
2022/03/29 05:36:27;;;;;;;9.40;7.40;;;;;;;;;;10379896;28;20030;-44
2022/03/29 05:41:28;;;;;;;10.40;7.28;;;;;;;;;;10379830;28;20046;-42
2022/03/29 05:51:49;;;;;;;10.15;7.43;;;;;;;;;;10375137;28;20038;-43
2022/03/29 05:56:50;;;;;;;11.52;6.97;;;;;;;;;;10377890;28;20034;-43
2022/03/29 06:01:50;;;;;;;15.38;7.75;;;;;;;;;;10378833;28;20021;-41
2022/03/29 06:06:51;;;;;;;20.35;7.97;;;;;;;;;;10379618;28;20061;-41
2022/03/29 06:11:52;;;;;;;12.95;8.25;;;;;;;;;;10377310;28;20058;-41
2022/03/29 06:16:55;;;;;;;12.68;7.85;;;;;;;;;;10375359;28;20026;-65
2022/03/29 06:21:55;;;;;;;12.57;8.13;;;;;;;;;;10375350;28;20038;-42
2022/03/29 06:26:56;;;;;;;15.57;8.85;;;;;;;;;;10370307;28;20026;-41
2022/03/29 06:31:58;;;;;;;30.48;8.88;;;;;;;;;;10372372;28;20033;-40
2022/03/29 06:36:59;;;;;;;17.27;8.55;;;;;;;;;;10373620;28;20030;-41
2022/03/29 06:42:00;;;;;;;38.28;9.93;;;;;;;;;;10370821;28;20046;-60
2022/03/29 06:47:02;;;;;;;19.33;9.25;;;;;;;;;;10372111;28;20458;-44
2022/03/29 06:52:03;;;;;;;18.00;8.82;;;;;;;;;;10372155;28;20034;-44
2022/03/29 06:57:05;;;;;;;20.70;8.63;;;;;;;;;;10371678;28;20105;-45
2022/03/29 07:02:06;;;;;;;14.07;8.48;;;;;;;;;;10371673;28;20530;-44
2022/03/29 07:07:06;;;;;;;20.02;8.75;;;;;;;;;;10369745;28;20092;-42
2022/03/29 07:12:07;;;;;;;14.57;7.70;;;;;;;;;;10369897;28;20026;-49
2022/03/29 07:17:13;;;;;;;20.00;8.00;;;;;;;;;;10353283;28;20033;-44
2022/03/29 07:22:13;;;;;;;12.25;8.15;;;;;;;;;;10370669;28;20484;-46
2022/03/29 07:27:14;;;;;;;13.40;8.02;;;;;;;;;;10370175;28;20034;-53
2022/03/29 07:32:14;;;;;;;17.90;8.30;;;;;;;;;;10370301;28;20053;-50
2022/03/29 07:37:15;;;;;;;14.60;7.65;;;;;;;;;;10369900;28;20026;-42
2022/03/29 07:42:16;;;;;;;11.55;7.43;;;;;;;;;;10369900;28;20026;-45
2022/03/29 07:47:19;;;;;;;14.73;8.07;;;;;;;;;;10369675;28;20034;-46
2022/03/29 07:52:19;;;;;;;13.90;7.72;;;;;;;;;;10369952;28;20030;-57
2022/03/29 07:57:20;;;;;;;13.45;7.43;;;;;;;;;;10369224;28;20030;-54
2022/03/29 08:02:20;;;;;;;13.25;7.50;;;;;;;;;;10369694;28;20033;-47
2022/03/29 08:07:21;;;;;;;13.68;7.65;;;;;;;;;;10368918;28;20051;-45
2022/03/29 08:12:22;;;;;;;16.55;8.35;;;;;;;;;;10368855;28;20540;-43
2022/03/29 08:17:22;;;;;;;13.57;8.00;;;;;;;;;;10368585;28;20037;-45
2022/03/29 08:22:23;;;;;;;10.40;7.75;;;;;;;;;;10369279;28;20382;-47
2022/03/29 08:27:23;;;;;;;12.98;8.07;;;;;;;;;;10368018;28;20382;-46
2022/03/29 08:32:24;;;;;;;11.85;7.10;;;;;;;;;;10368055;28;20033;-40
2022/03/29 08:37:25;;;;;;;9.63;7.85;;;;;;;;;;10367778;28;20037;-51
2022/03/29 08:42:25;;;;;;;16.27;7.63;;;;;;;;;;10368705;28;20026;-42
2022/03/29 08:47:26;;;;;;;9.55;7.05;;;;;;;;;;10367307;28;20462;-46
2022/03/29 08:52:27;;;;;;;8.88;6.90;;;;;;;;;;10367467;28;20030;-50
2022/03/29 08:57:28;;;;;;;15.88;7.32;;;;;;;;;;10367387;28;20045;-54
2022/03/29 09:02:35;;;;;;;8.43;6.97;;;;;;;;;;10367170;28;20406;-53
2022/03/29 09:08:03;;;;;;;11.10;7.57;;;;;;;;;;10367106;28;20490;-44
2022/03/29 09:13:27;;;;;;;;;;;;;;;;;;10367648;28;20053;-45
2022/03/29 09:18:30;;;;;;;15.25;7.55;;;;;;;;;;10366788;28;20428;-47
2022/03/29 09:23:31;;;;;;;13.50;7.50;;;;;;;;;;10366875;28;20488;-43
2022/03/29 09:28:38;;;;;;;13.55;7.13;;;;;;;;;;10366602;28;20029;-41
2022/03/29 09:33:41;;;;;;;10.63;6.75;;;;;;;;;;10366858;28;20057;-46
2022/03/29 09:38:45;;;;;;;13.07;8.23;;;;;;;;;;10362049;28;20054;-42
2022/03/29 09:44:08;;;;;;;13.68;8.05;;;;;;;;;;10366598;28;20022;-41
2022/03/29 09:49:09;;;;;;;17.83;7.38;;;;;;;;;;10366460;28;20046;-41
2022/03/29 09:54:10;;;;;;;14.23;7.78;;;;;;;;;;10366975;28;20543;-41
2022/03/29 09:59:14;;;;;;;17.13;7.53;;;;;;;;;;10371273;28;20060;-44
2022/03/29 10:04:17;;;;;;;12.68;8.30;;;;;;;;;;10373715;28;20030;-41
2022/03/29 10:09:33;;;;;;;11.32;7.28;;;;;;;;;;10373683;28;20026;-44
2022/03/29 10:14:38;;;;;;;13.52;8.00;;;;;;;;;;10373693;28;20104;-41
2022/03/29 10:19:39;;;;;;;11.88;7.65;;;;;;;;;;10373151;28;20042;-41
2022/03/29 10:24:39;;;;;;;13.85;7.60;;;;;;;;;;10372977;28;20032;-43
2022/03/29 10:29:41;;;;;;;14.93;7.57;;;;;;;;;;10372904;28;20030;-41
2022/03/29 10:34:59;;;;;;;10.55;8.10;;;;;;;;;;10373053;28;20386;-43
2022/03/29 10:40:05;;;;;;;10.65;8.23;;;;;;;;;;10357484;28;20053;-46
2022/03/29 10:45:25;;;;;;;14.00;7.53;;;;;;;;;;10372115;28;20041;-42
2022/03/29 10:50:54;;;;;;;16.45;8.02;;;;;;;;;;10372150;28;20032;-41
2022/03/29 10:56:15;;;;;;;11.90;8.68;;;;;;;;;;10371686;28;20037;-41
2022/03/29 11:01:15;;;;;;;10.95;8.07;;;;;;;;;;10371811;28;20037;-41
2022/03/29 11:06:17;;;;;;;13.93;8.50;;;;;;;;;;10371402;28;20045;-45
2022/03/29 11:11:40;;;;;;;11.25;7.93;;;;;;;;;;10370218;28;20041;-41
2022/03/29 11:16:40;;;;;;;11.90;8.40;;;;;;;;;;10370987;28;20038;-41
2022/03/29 11:21:41;;;;;;;13.02;8.23;;;;;;;;;;10370830;28;20018;-43
2022/03/29 11:26:55;;;;;;;17.63;8.82;;;;;;;;;;10369680;28;20072;-41
2022/03/29 11:31:56;;;;;;;16.15;8.25;;;;;;;;;;10370861;28;20025;-43
2022/03/29 11:36:57;;;;;;;9.90;8.18;;;;;;;;;;10370166;28;20505;-46
2022/03/29 11:41:58;;;;;;;16.05;8.35;;;;;;;;;;10369791;28;20053;-44
2022/03/29 11:46:58;;;;;;;14.90;9.25;;;;;;;;;;10369900;28;20041;-41
2022/03/29 11:52:18;;;;;;;13.57;8.52;;;;;;;;;;10369512;28;20039;-46
2022/03/29 11:57:30;;;;;;;11.90;9.25;;;;;;;;;;10369284;28;20109;-43
2022/03/29 12:02:41;;;;;;;11.63;8.38;;;;;;;;;;10369199;28;20133;-64
2022/03/29 12:07:44;;;;;;;14.70;8.57;;;;;;;;;;10369059;28;20085;-53
2022/03/29 12:12:52;;;;;;;15.30;8.30;;;;;;;;;;10367395;28;20041;-44
2022/03/29 12:23:28;;;;;;;18.55;8.57;;;;;;;;;;10335709;28;20053;-44
2022/03/29 12:28:30;;;;;;;20.30;9.13;;;;;;;;;;10368115;28;20476;-58
2022/03/29 12:33:36;;;;;;;13.18;8.13;;;;;;;;;;10350939;28;20021;-41
2022/03/29 12:38:52;;;;;;;19.80;8.48;;;;;;;;;;10350479;28;20045;-44
2022/03/29 12:43:54;;;;;;;11.90;8.35;;;;;;;;;;10367951;28;20025;-41
2022/03/29 12:48:55;;;;;;;12.85;8.80;;;;;;;;;;10367681;28;20112;-42
2022/03/29 12:54:03;;;;;;;16.85;9.73;;;;;;;;;;10368236;28;20025;-43
2022/03/29 12:59:36;;;;;;;16.63;9.20;;;;;;;;;;10368104;28;20249;-41
2022/03/29 13:04:50;;;;;;;16.15;9.95;;;;;;;;;;10367795;28;20022;-44
2022/03/29 13:10:10;;;;;;;12.02;8.90;;;;;;;;;;10367359;28;20029;-41
2022/03/29 13:16:09;;;;;;;18.60;9.73;;;;;;;;;;10367119;28;20025;-44
2022/03/29 13:21:36;;;;;;;12.55;9.20;;;;;;;;;;10367137;28;20111;-41
2022/03/29 13:26:39;;;;;;;12.45;9.02;;;;;;;;;;10366715;28;20069;-43
2022/03/29 13:31:42;;;;;;;12.50;8.57;;;;;;;;;;10369973;28;20034;-41
2022/03/29 13:36:44;;;;;;;14.32;8.88;;;;;;;;;;10375187;28;20124;-44
2022/03/29 13:41:45;;;;;;;13.38;9.25;;;;;;;;;;10374399;28;20129;-41
2022/03/29 13:46:46;;;;;;;13.75;8.23;;;;;;;;;;10374889;28;20033;-47
2022/03/29 13:51:46;;;;;;;9.98;8.25;;;;;;;;;;10374940;28;20405;-48
2022/03/29 13:56:47;;;;;;;14.00;9.07;;;;;;;;;;10374539;28;20022;-52
2022/03/29 14:01:47;;;;;;;16.90;9.30;;;;;;;;;;10374875;28;20032;-41
2022/03/29 14:06:48;;;;;;;11.13;8.48;;;;;;;;;;10374191;28;20068;-41
2022/03/29 14:11:49;;;;;;;12.65;8.50;;;;;;;;;;10373644;28;20034;-47
2022/03/29 14:16:49;;;;;;;12.80;9.10;;;;;;;;;;10373274;28;20030;-46
2022/03/29 14:21:50;;;;;;;11.02;8.05;;;;;;;;;;10373464;28;20030;-48
2022/03/29 14:26:54;;;;;;;10.85;8.45;;;;;;;;;;10373346;28;20033;-43
2022/03/29 14:31:55;;;;;;;12.27;8.27;;;;;;;;;;10355588;28;20129;-45
2022/03/29 14:36:56;;;;;;;13.50;8.45;;;;;;;;;;10373048;28;20092;-41
2022/03/29 14:41:56;;;;;;;12.30;8.48;;;;;;;;;;10371279;28;20046;-46
2022/03/29 14:46:57;;;;;;;10.13;7.68;;;;;;;;;;10372196;28;20033;-44
2022/03/29 14:51:59;;;;;;;16.42;8.32;;;;;;;;;;10370295;28;20113;-46
2022/03/29 14:57:00;;;;;;;14.68;7.80;;;;;;;;;;10368121;28;20556;-43
2022/03/29 15:02:01;;;;;;;10.98;8.10;;;;;;;;;;10368699;28;20018;-40
2022/03/29 15:07:03;;;;;;;13.98;8.00;;;;;;;;;;10370047;28;20026;-43
2022/03/29 15:12:04;;;;;;;10.27;7.57;;;;;;;;;;10353754;28;20441;-42
2022/03/29 15:17:06;;;;;;;13.80;8.18;;;;;;;;;;10371117;28;20112;-42
2022/03/29 15:22:08;;;;;;;11.77;8.23;;;;;;;;;;10368725;28;20189;-43
2022/03/29 15:27:08;;;;;;;15.10;8.35;;;;;;;;;;10369676;28;20573;-44
2022/03/29 15:32:09;;;;;;;10.10;8.32;;;;;;;;;;10371343;28;20026;-45
2022/03/29 15:37:14;;;;;;;11.27;8.25;;;;;;;;;;10370166;28;20029;-44
2022/03/29 15:42:17;;;;;;;12.75;8.07;;;;;;;;;;10370216;28;20129;-45
2022/03/29 15:47:20;;;;;;;13.25;8.15;;;;;;;;;;10369989;28;20141;-44
2022/03/29 15:52:21;;;;;;;10.52;7.65;;;;;;;;;;10370126;28;20106;-41
2022/03/29 15:57:24;;;;;;;20.33;8.70;;;;;;;;;;10369510;28;20052;-46
2022/03/29 16:02:24;;;;;;;11.68;7.72;;;;;;;;;;10369449;28;20034;-46
2022/03/29 16:07:25;;;;;;;12.40;8.35;;;;;;;;;;10369399;28;20044;-43
2022/03/29 16:12:25;;;;;;;11.30;8.57;;;;;;;;;;10369182;28;20032;-46
2022/03/29 16:17:26;;;;;;;9.43;7.63;;;;;;;;;;10369342;28;20478;-45
2022/03/29 16:22:27;;;;;;;11.30;7.50;;;;;;;;;;10368881;28;20351;-44
2022/03/29 16:27:29;;;;;;;11.38;8.15;;;;;;;;;;10368749;28;20026;-41
2022/03/29 16:32:30;;;;;;;10.35;8.73;;;;;;;;;;10367634;28;20041;-46
2022/03/29 16:37:35;;;;;;;11.77;8.32;;;;;;;;;;10350059;28;20037;-54
2022/03/29 16:42:37;;;;;;;10.48;8.10;;;;;;;;;;10368058;28;20068;-41
2022/03/29 16:47:38;;;;;;;10.13;8.30;;;;;;;;;;10367904;28;20048;-44
2022/03/29 16:52:39;;;;;;;12.50;8.18;;;;;;;;;;10368562;28;20028;-43
2022/03/29 16:57:39;;;;;;;12.93;7.53;;;;;;;;;;10367673;28;20033;-43
2022/03/29 17:02:40;;;;;;;12.15;8.57;;;;;;;;;;10367876;28;20453;-42
2022/03/29 17:07:41;;;;;;;15.95;7.70;;;;;;;;;;10366558;28;20056;-41
2022/03/29 17:12:41;;;;;;;11.10;7.70;;;;;;;;;;10367240;28;20473;-44
2022/03/29 17:17:42;;;;;;;9.60;7.68;;;;;;;;;;10367030;28;20543;-41
2022/03/29 17:22:44;;;;;;;9.38;7.38;;;;;;;;;;10367316;28;20137;-41
2022/03/29 17:27:46;;;;;;;8.38;6.97;;;;;;;;;;10366967;28;20042;-41
2022/03/29 17:32:48;;;;;;;11.48;7.95;;;;;;;;;;10365447;28;20026;-41
2022/03/29 17:37:50;;;;;;;13.85;7.90;;;;;;;;;;10362852;28;20597;-42
2022/03/29 17:42:51;;;;;;;12.35;7.28;;;;;;;;;;10364914;28;20508;-42
2022/03/29 17:47:51;;;;;;;10.52;6.95;;;;;;;;;;10366610;28;20029;-41
2022/03/29 17:52:52;;;;;;;13.55;8.63;;;;;;;;;;10365986;28;20026;-49
2022/03/29 17:57:53;;;;;;;30.27;8.63;;;;;;;;;;10364326;28;20037;-41
2022/03/29 18:02:54;;;;;;;22.63;8.55;;;;;;;;;;10364048;28;20053;-41
2022/03/29 18:07:55;;;;;;;26.95;9.07;;;;;;;;;;10366070;28;20022;-46
2022/03/29 18:12:56;;;;;;;14.13;7.38;;;;;;;;;;10366368;28;20030;-51
2022/03/29 18:17:57;;;;;;;18.33;7.95;;;;;;;;;;10368073;28;20288;-52
2022/03/29 18:22:58;;;;;;;27.10;8.98;;;;;;;;;;10373654;28;20030;-49
2022/03/29 18:28:01;;;;;;;21.67;7.53;;;;;;;;;;10373292;28;20099;-65
2022/03/29 18:33:02;;;;;;;26.77;8.93;;;;;;;;;;10372074;28;20030;-59
2022/03/29 18:38:03;;;;;;;22.65;8.55;;;;;;;;;;10370851;28;20033;-43
2022/03/29 18:43:04;;;;;;;31.52;8.13;;;;;;;;;;10372046;28;20473;-56
2022/03/29 18:48:04;;;;;;;19.73;7.60;;;;;;;;;;10372488;28;20037;-61
2022/03/29 18:53:05;;;;;;;16.33;7.45;;;;;;;;;;10372477;28;20392;-49
2022/03/29 18:58:06;;;;;;;11.75;7.40;;;;;;;;;;10372334;28;20037;-50
2022/03/29 19:03:07;;;;;;;16.00;8.32;;;;;;;;;;10371680;28;20042;-42
2022/03/29 19:08:08;;;;;;;19.05;7.47;;;;;;;;;;10372383;28;20046;-42
2022/03/29 19:13:09;;;;;;;14.00;6.72;;;;;;;;;;10371795;28;20030;-43
2022/03/29 19:18:10;;;;;;;16.20;7.07;;;;;;;;;;10371472;28;20042;-43
2022/03/29 19:23:11;;;;;;;13.80;7.07;;;;;;;;;;10371872;28;20084;-43
2022/03/29 19:28:11;;;;;;;24.52;7.35;;;;;;;;;;10370680;28;20462;-43
2022/03/29 19:33:12;;;;;;;20.17;7.68;;;;;;;;;;10370750;28;20481;-43
2022/03/29 19:38:15;;;;;;;13.68;7.47;;;;;;;;;;10370377;28;20041;-42
2022/03/29 19:43:46;;;;;;;13.50;6.22;;;;;;;;;;10371109;28;20045;-43
2022/03/29 19:48:46;;;;;;;15.85;6.50;;;;;;;;;;10370609;28;20033;-42
2022/03/29 19:53:47;;;;;;;11.25;6.80;;;;;;;;;;10370244;28;20033;-43
2022/03/29 19:58:48;;;;;;;21.25;6.60;;;;;;;;;;10369680;28;20034;-42
2022/03/29 20:03:48;;;;;;;16.65;6.90;;;;;;;;;;10369616;28;20109;-43
2022/03/29 20:08:49;;;;;;;12.27;6.10;;;;;;;;;;10369410;28;20039;-42
2022/03/29 20:13:49;;;;;;;12.50;7.22;;;;;;;;;;10369397;28;20022;-44
2022/03/29 20:18:53;;;;;;;12.68;6.72;;;;;;;;;;10351480;28;20465;-42
2022/03/29 20:23:53;;;;;;;10.07;6.30;;;;;;;;;;10369354;28;20069;-43
2022/03/29 20:28:54;;;;;;;12.95;6.13;;;;;;;;;;10368508;28;20026;-43
2022/03/29 20:33:55;;;;;;;12.85;6.60;;;;;;;;;;10369010;28;20037;-42
2022/03/29 20:38:55;;;;;;;14.05;6.55;;;;;;;;;;10368227;28;20054;-43
2022/03/29 20:43:56;;;;;;;11.75;6.93;;;;;;;;;;10368064;28;20091;-43
2022/03/29 20:48:57;;;;;;;16.83;7.07;;;;;;;;;;10367898;28;20116;-42
2022/03/29 20:53:59;;;;;;;10.43;6.50;;;;;;;;;;10350769;28;20033;-43
2022/03/29 20:59:00;;;;;;;10.68;7.05;;;;;;;;;;10367722;28;20041;-43
2022/03/29 21:04:05;;;;;;;10.82;6.20;;;;;;;;;;10367578;28;20440;-43
2022/03/29 21:09:08;;;;;;;9.70;6.82;;;;;;;;;;10350486;28;20578;-42
2022/03/29 21:14:09;;;;;;;12.07;6.82;;;;;;;;;;10364346;28;20049;-43
2022/03/29 21:19:09;;;;;;;10.30;6.88;;;;;;;;;;10365664;28;20190;-43
2022/03/29 21:24:10;;;;;;;12.27;7.05;;;;;;;;;;10365389;28;20033;-43
2022/03/29 21:29:12;;;;;;;14.20;6.32;;;;;;;;;;10363679;28;20109;-44
2022/03/29 21:34:12;;;;;;;13.55;7.15;;;;;;;;;;10366927;28;20112;-43
2022/03/29 21:39:13;;;;;;;9.98;6.03;;;;;;;;;;10366770;28;20563;-43
2022/03/29 21:44:14;;;;;;;12.02;6.28;;;;;;;;;;10366970;28;20472;-43
2022/03/29 21:49:15;;;;;;;10.20;6.80;;;;;;;;;;10365585;28;20041;-43
2022/03/29 21:54:15;;;;;;;13.57;7.05;;;;;;;;;;10372662;28;20072;-45
2022/03/29 21:59:16;;;;;;;15.00;7.28;;;;;;;;;;10372981;28;20597;-44
2022/03/29 22:04:17;;;;;;;13.48;6.55;;;;;;;;;;10373933;28;20481;-68
2022/03/29 22:09:18;;;;;;;11.10;6.80;;;;;;;;;;10372508;28;20041;-69
2022/03/29 22:14:18;;;;;;;10.43;6.60;;;;;;;;;;10370237;28;20491;-65
2022/03/29 22:19:19;;;;;;;11.80;6.30;;;;;;;;;;10370329;28;20324;-68
2022/03/29 22:24:19;;;;;;;8.35;6.53;;;;;;;;;;10370299;28;20056;-64
2022/03/29 22:29:20;;;;;;;14.90;7.35;;;;;;;;;;10369433;28;20025;-71
2022/03/29 22:34:21;;;;;;;17.70;7.10;;;;;;;;;;10372419;28;20489;-71
2022/03/29 22:39:22;;;;;;;14.43;6.63;;;;;;;;;;10372042;28;20050;-65
2022/03/29 22:44:22;;;;;;;12.27;6.80;;;;;;;;;;10373449;28;20044;-67
2022/03/29 22:49:23;;;;;;;10.27;6.15;;;;;;;;;;10369959;28;20504;-64
2022/03/29 22:54:23;;;;;;;10.93;6.78;;;;;;;;;;10369013;28;20121;-65
2022/03/29 22:59:24;;;;;;;14.00;7.10;;;;;;;;;;10368947;28;20029;-62
2022/03/29 23:04:25;;;;;;;12.13;6.85;;;;;;;;;;10367899;28;20030;-43
2022/03/29 23:09:26;;;;;;;11.30;6.60;;;;;;;;;;10366973;28;20033;-43
2022/03/29 23:14:29;;;;;;;13.68;6.97;;;;;;;;;;10373646;28;20026;-44
2022/03/29 23:19:34;;;;;;;10.77;7.15;;;;;;;;;;10353694;28;20030;-43
2022/03/29 23:24:35;;;;;;;9.77;6.43;;;;;;;;;;10370374;28;20032;-43
2022/03/29 23:29:35;;;;;;;13.38;6.07;;;;;;;;;;10370917;28;20489;-43
2022/03/29 23:34:36;;;;;;;10.30;6.25;;;;;;;;;;10369640;28;20025;-43
2022/03/29 23:39:37;;;;;;;12.27;6.47;;;;;;;;;;10368907;28;20413;-44
2022/03/29 23:44:37;;;;;;;8.95;6.53;;;;;;;;;;10368650;28;20198;-44
2022/03/29 23:49:38;;;;;;;16.60;6.43;;;;;;;;;;10369426;28;20030;-44
2022/03/29 23:54:39;;;;;;;11.82;6.93;;;;;;;;;;10367773;28;20507;-44
2022/03/29 23:59:39;;;;;;;17.33;6.35;;;;;;;;;;10369439;28;20033;-44
